Home > Products > Valid Products > TAF

000
FTUS45 KFGZ 310500
TAFPGA
TAF
KPGA 310527Z 3106/0106 VRB05KT P6SM FEW200
     FM311800 30011KT P6SM FEW150 SCT250
     FM010200 VRB06KT P6SM SCT250=



000
FTUS45 KFGZ 310500
TAFINW
TAF
KINW 310527Z 3106/0106 25007KT P6SM FEW250
     FM312000 23017G25KT P6SM FEW250
     FM010300 22012KT P6SM SCT250=



000
FTUS45 KFGZ 310500
TAFFLG
TAF
KFLG 310527Z 3106/0106 VRB04KT P6SM FEW250
     FM311800 22018G25KT P6SM FEW090 FEW250
     FM010200 22008KT P6SM SCT250=



000
FTUS45 KFGZ 310500
TAFINW
TAF
KINW 310527Z 3106/0106 25007KT P6SM FEW250
     FM312000 23017G25KT P6SM FEW250
     FM010300 22012KT P6SM SCT250=



000
FTUS45 KFGZ 310500
TAFFLG
TAF
KFLG 310527Z 3106/0106 VRB04KT P6SM FEW250
     FM311800 22018G25KT P6SM FEW090 FEW250
     FM010200 22008KT P6SM SCT250=



000
FTUS45 KFGZ 310500
TAFPGA
TAF
KPGA 310527Z 3106/0106 VRB05KT P6SM FEW200
     FM311800 30011KT P6SM FEW150 SCT250
     FM010200 VRB06KT P6SM SCT250=



000
FTUS45 KFGZ 302300
TAFFLG
TAF
KFLG 302320Z 3100/3124 22010G17KT P6SM SCT100 SCT250
     FM310200 VRB04KT P6SM FEW250
     FM311800 22018G25KT P6SM FEW060 FEW250=



000
FTUS45 KFGZ 302300
TAFFLG
TAF
KFLG 302320Z 3100/3124 22010G17KT P6SM SCT100 SCT250
     FM310200 VRB04KT P6SM FEW250
     FM311800 22018G25KT P6SM FEW060 FEW250=



000
FTUS45 KFGZ 302300
TAFINW
TAF
KINW 302320Z 3100/3124 21012KT P6SM SCT200
     FM310200 25007KT P6SM FEW250
     FM312000 23014G20KT P6SM FEW250=



000
FTUS45 KFGZ 302300
TAFPGA
TAF
KPGA 302320Z 3100/3124 03007KT P6SM SCT250
     FM310100 VRB05KT P6SM FEW200
     FM311800 30011KT P6SM FEW150=



000
FTUS45 KFGZ 302300
TAFPGA
TAF
KPGA 302320Z 3100/3124 03007KT P6SM SCT250
     FM310100 VRB05KT P6SM FEW200
     FM311800 30011KT P6SM FEW150=



000
FTUS45 KFGZ 302300
TAFINW
TAF
KINW 302320Z 3100/3124 21012KT P6SM SCT200
     FM310200 25007KT P6SM FEW250
     FM312000 23014G20KT P6SM FEW250=



000
FTUS45 KFGZ 301700
TAFFLG
TAF
KFLG 301736Z 3018/3118 22006KT P6SM SCT100 BKN250
     FM302000 22010G17KT P6SM SCT100 SCT250
     FM310200 VRB04KT P6SM FEW250=



000
FTUS45 KFGZ 301700
TAFPGA
TAF
KPGA 301736Z 3018/3118 03007KT P6SM SCT250
     FM310100 VRB05KT P6SM SCT250=



000
FTUS45 KFGZ 301700
TAFINW
TAF
KINW 301736Z 3018/3118 VRB06KT P6SM BKN250
     FM310300 25007KT P6SM BKN200=



000
FTUS45 KFGZ 301700
TAFPGA
TAF
KPGA 301736Z 3018/3118 03007KT P6SM SCT250
     FM310100 VRB05KT P6SM SCT250=



000
FTUS45 KFGZ 301700
TAFFLG
TAF
KFLG 301736Z 3018/3118 22006KT P6SM SCT100 BKN250
     FM302000 22010G17KT P6SM SCT100 SCT250
     FM310200 VRB04KT P6SM FEW250=



000
FTUS45 KFGZ 301700
TAFINW
TAF
KINW 301736Z 3018/3118 VRB06KT P6SM BKN250
     FM310300 25007KT P6SM BKN200=



000
FTUS45 KFGZ 301100
TAFPGA
TAF
KPGA 301120Z 3012/3112 VRB04KT P6SM SCT250=



000
FTUS45 KFGZ 301100
TAFPGA
TAF
KPGA 301120Z 3012/3112 VRB04KT P6SM SCT250=



000
FTUS45 KFGZ 301100
TAFINW
TAF
KINW 301120Z 3012/3112 VRB06KT P6SM BKN250
     FM302100 23012KT P6SM FEW120 SCT250=



000
FTUS45 KFGZ 301100
TAFINW
TAF
KINW 301120Z 3012/3112 VRB06KT P6SM BKN250
     FM302100 23012KT P6SM FEW120 SCT250=



000
FTUS45 KFGZ 301100
TAFFLG
TAF
KFLG 301120Z 3012/3112 VRB03KT P6SM BKN250
     FM301800 23010G17KT P6SM SCT100 SCT250
     FM310200 VRB04KT P6SM FEW250=



000
FTUS45 KFGZ 301100
TAFFLG
TAF
KFLG 301120Z 3012/3112 VRB03KT P6SM BKN250
     FM301800 23010G17KT P6SM SCT100 SCT250
     FM310200 VRB04KT P6SM FEW250=



000
FTUS45 KFGZ 300500
TAFPGA
TAF
KPGA 300526Z 3006/3106 VRB04KT P6SM FEW150 SCT250=



000
FTUS45 KFGZ 300500
TAFINW
TAF
KINW 300526Z 3006/3106 VRB06KT P6SM SCT250
     FM302100 23012KT P6SM FEW120 SCT250=



000
FTUS45 KFGZ 300500
TAFFLG
TAF
KFLG 300526Z 3006/3106 VRB03KT P6SM FEW120 SCT200
     FM301800 22010G17KT P6SM FEW100 SCT200
     FM310200 VRB04KT P6SM SCT250=



000
FTUS45 KFGZ 300500
TAFINW
TAF
KINW 300526Z 3006/3106 VRB06KT P6SM SCT250
     FM302100 23012KT P6SM FEW120 SCT250=



000
FTUS45 KFGZ 300500
TAFPGA
TAF
KPGA 300526Z 3006/3106 VRB04KT P6SM FEW150 SCT250=



000
FTUS45 KFGZ 292300
TAFPGA
TAF
KPGA 292320Z 3000/3024 VRB04KT P6SM FEW150 FEW250=



000
FTUS45 KFGZ 292300
TAFFLG
TAF
KFLG 292320Z 3000/3024 22010KT P6SM FEW100 SCT250
     FM300200 VRB03KT P6SM SCT250
     FM301800 22009KT P6SM SCT100 SCT250=



000
FTUS45 KFGZ 292300
TAFINW
TAF
KINW 292320Z 3000/3024 VRB05KT P6SM SCT250
     FM302100 22007KT P6SM FEW120 SCT250=



000
FTUS45 KFGZ 292300
TAFPGA
TAF
KPGA 292320Z 3000/3024 VRB04KT P6SM FEW150 FEW250=



000
FTUS45 KFGZ 292300
TAFFLG
TAF
KFLG 292320Z 3000/3024 22010KT P6SM FEW100 SCT250
     FM300200 VRB03KT P6SM SCT250
     FM301800 22009KT P6SM SCT100 SCT250=



000
FTUS45 KFGZ 292300
TAFINW
TAF
KINW 292320Z 3000/3024 VRB05KT P6SM SCT250
     FM302100 22007KT P6SM FEW120 SCT250=



000
FTUS45 KFGZ 291700
TAFINW
TAF
KINW 291720Z 2918/3018 22010KT P6SM FEW250
     FM292000 30007KT P6SM SCT250
     FM300200 VRB03KT P6SM SCT250=



000
FTUS45 KFGZ 291700
TAFFLG
TAF
KFLG 291720Z 2918/3018 22010KT P6SM SCT250
     FM300200 VRB03KT P6SM SCT250=



000
FTUS45 KFGZ 291700
TAFINW
TAF
KINW 291720Z 2918/3018 22010KT P6SM FEW250
     FM292000 30007KT P6SM SCT250
     FM300200 VRB03KT P6SM SCT250=



000
FTUS45 KFGZ 291700
TAFPGA
TAF
KPGA 291720Z 2918/3018 VRB04KT P6SM FEW250=



000
FTUS45 KFGZ 291700
TAFFLG
TAF
KFLG 291720Z 2918/3018 22010KT P6SM SCT250
     FM300200 VRB03KT P6SM SCT250=



000
FTUS45 KFGZ 291700
TAFPGA
TAF
KPGA 291720Z 2918/3018 VRB04KT P6SM FEW250=



000
FTUS45 KFGZ 291100
TAFINW
TAF
KINW 291120Z 2912/3012 22010KT P6SM FEW250
     FM292000 30007KT P6SM SCT250
     FM300200 VRB03KT P6SM SCT250=



000
FTUS45 KFGZ 291100
TAFINW
TAF
KINW 291120Z 2912/3012 22010KT P6SM FEW250
     FM292000 30007KT P6SM SCT250
     FM300200 VRB03KT P6SM SCT250=



000
FTUS45 KFGZ 291100
TAFFLG
TAF
KFLG 291120Z 2912/3012 VRB03KT P6SM SKC
     FM291800 22010KT P6SM SCT250
     FM300200 VRB03KT P6SM SCT250=



000
FTUS45 KFGZ 291100
TAFPGA
TAF
KPGA 291120Z 2912/3012 VRB04KT P6SM FEW250=



000
FTUS45 KFGZ 291100
TAFPGA
TAF
KPGA 291120Z 2912/3012 VRB04KT P6SM FEW250=



000
FTUS45 KFGZ 291100
TAFFLG
TAF
KFLG 291120Z 2912/3012 VRB03KT P6SM SKC
     FM291800 22010KT P6SM SCT250
     FM300200 VRB03KT P6SM SCT250=



000
FTUS45 KFGZ 291000 AAA
TAFINW
TAF AMD
KINW 291041Z 2911/3006 22010KT P6SM FEW250
     FM292000 27007KT P6SM SCT250
     FM300200 VRB03KT P6SM SCT250=



000
FTUS45 KFGZ 290500
TAFPGA
TAF
KPGA 290529Z 2906/3006 VRB04KT P6SM FEW250=



000
FTUS45 KFGZ 290500
TAFINW
TAF
KINW 290529Z 2906/3006 22010KT P6SM SKC
     FM291000 12005KT P6SM FEW250
     FM292000 27007KT P6SM SCT250
     FM300200 VRB03KT P6SM SCT250=



000
FTUS45 KFGZ 290500
TAFPGA
TAF
KPGA 290529Z 2906/3006 VRB04KT P6SM FEW250=



000
FTUS45 KFGZ 290500
TAFINW
TAF
KINW 290529Z 2906/3006 22010KT P6SM SKC
     FM291000 12005KT P6SM FEW250
     FM292000 27007KT P6SM SCT250
     FM300200 VRB03KT P6SM SCT250=



000
FTUS45 KFGZ 290500
TAFFLG
TAF
KFLG 290529Z 2906/3006 VRB03KT P6SM SKC
     FM291800 22010G18KT P6SM SCT250
     FM300200 VRB03KT P6SM SCT250=



000
FTUS45 KFGZ 290500
TAFFLG
TAF
KFLG 290529Z 2906/3006 VRB03KT P6SM SKC
     FM291800 22010G18KT P6SM SCT250
     FM300200 VRB03KT P6SM SCT250=



000
FTUS45 KFGZ 290000 AAA
TAFPGA
TAF AMD
KPGA 290003Z 2900/2924 28009G17KT P6SM SKC
     FM290200 VRB04KT P6SM FEW250=



000
FTUS45 KFGZ 290000 AAA
TAFPGA
TAF AMD
KPGA 290003Z 2900/2924 28009G17KT P6SM SKC
     FM290200 VRB04KT P6SM FEW250=



000
FTUS45 KFGZ 282300
TAFPGA
TAF
KPGA 282331Z 2900/2924 VRB04KT P6SM FEW250=



000
FTUS45 KFGZ 282300
TAFINW
TAF
KINW 282331Z 2900/2924 26014G23KT P6SM SKC
     FM290200 24010KT P6SM SKC
     FM291000 12005KT P6SM FEW250
     FM292000 27007KT P6SM SCT250=



000
FTUS45 KFGZ 282300
TAFINW
TAF
KINW 282331Z 2900/2924 26014G23KT P6SM SKC
     FM290200 24010KT P6SM SKC
     FM291000 12005KT P6SM FEW250
     FM292000 27007KT P6SM SCT250=



000
FTUS45 KFGZ 282300
TAFFLG
TAF
KFLG 282331Z 2900/2924 24011G20KT P6SM SKC
     FM290200 VRB03KT P6SM SKC
     FM291800 22010G18KT P6SM SCT250=



000
FTUS45 KFGZ 282300
TAFFLG
TAF
KFLG 282331Z 2900/2924 24011G20KT P6SM SKC
     FM290200 VRB03KT P6SM SKC
     FM291800 22010G18KT P6SM SCT250=



000
FTUS45 KFGZ 282300
TAFPGA
TAF
KPGA 282331Z 2900/2924 VRB04KT P6SM FEW250=



000
FTUS45 KFGZ 282100 AAA
TAFFLG
TAF AMD
KFLG 282128Z 2821/2918 22010G20KT P6SM SKC
     FM290200 VRB03KT P6SM FEW250=



000
FTUS45 KFGZ 282100 AAA
TAFFLG
TAF AMD
KFLG 282128Z 2821/2918 22010G20KT P6SM SKC
     FM290200 VRB03KT P6SM FEW250=



000
FTUS45 KFGZ 281700
TAFFLG
TAF
KFLG 281720Z 2818/2918 24010G18KT P6SM SKC
     FM290200 VRB03KT P6SM FEW250=



000
FTUS45 KFGZ 281700
TAFINW
TAF
KINW 281720Z 2818/2918 VRB05KT P6SM SKC
     FM282000 25012G19KT P6SM SKC
     FM290200 23008KT P6SM FEW250=



000
FTUS45 KFGZ 281700
TAFFLG
TAF
KFLG 281720Z 2818/2918 24010G18KT P6SM SKC
     FM290200 VRB03KT P6SM FEW250=



000
FTUS45 KFGZ 281700
TAFPGA
TAF
KPGA 281720Z 2818/2918 VRB04KT P6SM SKC=



000
FTUS45 KFGZ 281100
TAFINW
TAF
KINW 281122Z 2812/2912 VRB05KT P6SM SKC
     FM282000 25012G19KT P6SM SKC
     FM290200 23008KT P6SM FEW250=



000
FTUS45 KFGZ 281100
TAFPGA
TAF
KPGA 281122Z 2812/2912 VRB04KT P6SM SKC=



000
FTUS45 KFGZ 281100
TAFFLG
TAF
KFLG 281122Z 2812/2912 00000KT P6SM SKC
     FM281800 24010G18KT P6SM SKC
     FM290200 VRB03KT P6SM FEW250=



000
FTUS45 KFGZ 281100
TAFINW
TAF
KINW 281122Z 2812/2912 VRB05KT P6SM SKC
     FM282000 25012G19KT P6SM SKC
     FM290200 23008KT P6SM FEW250=



000
FTUS45 KFGZ 281100
TAFFLG
TAF
KFLG 281122Z 2812/2912 00000KT P6SM SKC
     FM281800 24010G18KT P6SM SKC
     FM290200 VRB03KT P6SM FEW250=



000
FTUS45 KFGZ 281100
TAFPGA
TAF
KPGA 281122Z 2812/2912 VRB04KT P6SM SKC=



    US Dept of Commerce
    National Oceanic and Atmospheric Administration
    National Weather Service
    1325 East West Highway
    Silver Spring, MD 20910
    Page Author: NWS Internet Services Team
Disclaimer
Information Quality
Credits
Glossary
Privacy Policy
Freedom of Information Act (FOIA)
About Us
Career Opportunities